Time;durP1;ratioP1;P1;durP2;ratioP2;P2;SDS_P1;SDS_P2;PMS_P1;PMS_P2;Temp;Humidity;BMP_temperature;BMP_pressure;BME280_temperature;BME280_humidity;BME280_pressure;Samples;Min_cycle;Max_cycle;Signal;HPM_P1;HPM_P2
2022/04/05 00:02:19;;;;;;;0.90;0.60;;;10.30;78.70;;;;;;5049943;28;20064;-74
2022/04/05 00:04:47;;;;;;;0.65;0.40;;;10.30;79.20;;;;;;5050231;28;20063;-72
2022/04/05 00:07:14;;;;;;;1.52;0.45;;;10.30;79.30;;;;;;5046260;28;20126;-75
2022/04/05 00:09:42;;;;;;;0.80;0.50;;;10.30;79.20;;;;;;5052478;28;20115;-73
2022/04/05 00:12:09;;;;;;;1.10;0.43;;;10.30;79.40;;;;;;5054538;28;20514;-74
2022/04/05 00:14:36;;;;;;;1.13;0.50;;;10.30;78.40;;;;;;5040028;28;20063;-73
2022/04/05 00:17:04;;;;;;;0.95;0.47;;;10.30;79.70;;;;;;5058121;28;20111;-73
2022/04/05 00:19:31;;;;;;;0.80;0.60;;;10.30;79.50;;;;;;5056369;28;20054;-75
2022/04/05 00:21:59;;;;;;;0.80;0.60;;;10.30;79.50;;;;;;5050191;28;20052;-73
2022/04/05 00:24:26;;;;;;;0.70;0.50;;;10.30;79.90;;;;;;5049365;28;20047;-75
2022/04/05 00:26:55;;;;;;;0.60;0.50;;;10.30;79.60;;;;;;5048000;28;20044;-74
2022/04/05 00:29:22;;;;;;;0.70;0.40;;;10.30;79.30;;;;;;5048095;28;20036;-74
2022/04/05 00:31:50;;;;;;;0.70;0.50;;;10.30;79.70;;;;;;5055301;28;20044;-73
2022/04/05 00:34:17;;;;;;;0.90;0.50;;;10.30;79.70;;;;;;5046810;28;20048;-74
2022/04/05 00:36:44;;;;;;;1.60;0.60;;;10.30;79.10;;;;;;5051601;28;20051;-76
2022/04/05 00:39:12;;;;;;;0.85;0.60;;;10.30;79.50;;;;;;5034928;28;20126;-73
2022/04/05 00:41:39;;;;;;;0.98;0.60;;;10.30;79.40;;;;;;5028808;28;20041;-74
2022/04/05 00:44:05;;;;;;;0.60;0.50;;;10.30;79.00;;;;;;5050215;28;20048;-76
2022/04/05 00:46:32;;;;;;;0.88;0.52;;;10.30;79.40;;;;;;5029509;28;20060;-74
2022/04/05 00:49:02;;;;;;;0.60;0.40;;;10.30;79.20;;;;;;5048979;28;20049;-74
2022/04/05 00:51:29;;;;;;;1.15;0.50;;;10.30;79.50;;;;;;5040941;28;20052;-74
2022/04/05 00:53:59;;;;;;;1.25;0.60;;;10.40;79.10;;;;;;5036181;28;20452;-73
2022/04/05 00:56:28;;;;;;;1.42;0.43;;;10.40;79.60;;;;;;5046902;28;20101;-74
2022/04/05 00:58:56;;;;;;;0.70;0.50;;;10.30;79.20;;;;;;5050440;28;20055;-74
2022/04/05 01:01:26;;;;;;;0.60;0.40;;;10.30;79.70;;;;;;5030664;28;20053;-75
2022/04/05 01:03:53;;;;;;;1.15;0.63;;;10.30;79.50;;;;;;5049013;28;20049;-73
2022/04/05 01:06:24;;;;;;;1.20;0.65;;;10.30;80.00;;;;;;5032142;28;20037;-76
2022/04/05 01:08:51;;;;;;;1.20;0.68;;;10.30;80.30;;;;;;5050475;28;20044;-75
2022/04/05 01:11:18;;;;;;;1.40;0.60;;;10.30;80.20;;;;;;5055601;28;20223;-75
2022/04/05 01:13:46;;;;;;;0.95;0.60;;;10.40;80.10;;;;;;5050801;28;20053;-73
2022/04/05 01:16:13;;;;;;;0.93;0.50;;;10.40;80.20;;;;;;5038234;28;20139;-73
2022/04/05 01:18:41;;;;;;;0.73;0.50;;;10.40;79.50;;;;;;5052781;28;20471;-75
2022/04/05 01:21:09;;;;;;;1.08;0.70;;;10.40;79.90;;;;;;5056419;28;20036;-74
2022/04/05 01:23:36;;;;;;;0.93;0.65;;;10.40;80.00;;;;;;5046685;28;20064;-74
2022/04/05 01:26:04;;;;;;;1.00;0.63;;;10.30;80.60;;;;;;5048791;28;20075;-75
2022/04/05 01:28:31;;;;;;;0.85;0.65;;;10.40;80.20;;;;;;5060960;28;20060;-74
2022/04/05 01:30:58;;;;;;;1.20;0.63;;;10.30;80.50;;;;;;5058586;28;20083;-74
2022/04/05 01:33:25;;;;;;;0.75;0.60;;;10.40;81.00;;;;;;5041561;28;20052;-72
2022/04/05 01:35:52;;;;;;;0.80;0.70;;;10.40;80.80;;;;;;5058093;28;20064;-74
2022/04/05 01:38:19;;;;;;;0.90;0.70;;;10.30;80.50;;;;;;5061649;28;20048;-73
2022/04/05 01:40:47;;;;;;;1.20;0.70;;;10.30;80.50;;;;;;5051697;28;20041;-73
2022/04/05 01:43:16;;;;;;;0.82;0.60;;;10.30;81.00;;;;;;5052955;28;20068;-73
2022/04/05 01:45:45;;;;;;;1.42;0.70;;;10.30;80.90;;;;;;5050936;28;20036;-73
2022/04/05 01:48:14;;;;;;;1.35;0.80;;;10.30;81.10;;;;;;5056557;28;20107;-76
2022/04/05 01:50:43;;;;;;;0.90;0.70;;;10.40;80.90;;;;;;5032004;28;20048;-75
2022/04/05 01:53:10;;;;;;;0.85;0.63;;;10.30;80.90;;;;;;5047709;28;20041;-74
2022/04/05 01:55:38;;;;;;;0.77;0.55;;;10.40;81.20;;;;;;5054613;28;20052;-75
2022/04/05 01:58:05;;;;;;;1.25;0.77;;;10.30;80.90;;;;;;5049265;28;20090;-73
2022/04/05 02:00:33;;;;;;;1.08;0.90;;;10.30;81.20;;;;;;5058717;28;20095;-74
2022/04/05 02:03:00;;;;;;;2.10;0.85;;;10.40;81.30;;;;;;5056663;28;20055;-75
2022/04/05 02:05:27;;;;;;;1.20;0.73;;;10.40;81.40;;;;;;5052332;28;20491;-73
2022/04/05 02:07:54;;;;;;;0.80;0.60;;;10.40;80.70;;;;;;5059454;28;20040;-75
2022/04/05 02:10:21;;;;;;;1.00;0.65;;;10.40;80.80;;;;;;5047775;28;20052;-73
2022/04/05 02:12:47;;;;;;;1.05;0.68;;;10.30;80.30;;;;;;5031846;28;20044;-74
2022/04/05 02:15:14;;;;;;;0.68;0.57;;;10.40;80.20;;;;;;5057082;28;20048;-73
2022/04/05 02:17:43;;;;;;;0.70;0.60;;;10.40;80.30;;;;;;5054068;28;20239;-73
2022/04/05 02:20:12;;;;;;;0.93;0.65;;;10.40;79.60;;;;;;5034616;28;20053;-75
2022/04/05 02:22:39;;;;;;;0.88;0.60;;;10.40;79.70;;;;;;5049812;28;20049;-75
2022/04/05 02:25:07;;;;;;;0.70;0.50;;;10.40;79.50;;;;;;5051372;28;20044;-75
2022/04/05 02:27:34;;;;;;;1.92;0.80;;;10.40;79.80;;;;;;5051757;28;20051;-74
2022/04/05 02:30:00;;;;;;;1.13;0.80;;;10.40;79.20;;;;;;5052896;28;20052;-73
2022/04/05 02:32:27;;;;;;;0.95;0.70;;;10.40;79.70;;;;;;5044909;28;20072;-75
2022/04/05 02:34:56;;;;;;;1.30;0.60;;;10.40;79.70;;;;;;5048432;28;20047;-74
2022/04/05 02:37:22;;;;;;;1.10;0.80;;;10.40;79.80;;;;;;5053145;28;20044;-75
2022/04/05 02:39:49;;;;;;;0.98;0.70;;;10.40;79.70;;;;;;5056151;28;20040;-75
2022/04/05 02:42:16;;;;;;;0.90;0.60;;;10.40;79.90;;;;;;5047286;28;20088;-73
2022/04/05 02:44:43;;;;;;;1.25;0.80;;;10.40;79.70;;;;;;5054825;28;20048;-74
2022/04/05 02:47:10;;;;;;;1.40;0.60;;;10.40;79.50;;;;;;5047541;28;20106;-76
2022/04/05 02:49:38;;;;;;;1.10;0.70;;;10.40;80.00;;;;;;5039847;28;20040;-76
2022/04/05 02:52:07;;;;;;;1.23;0.70;;;10.40;79.40;;;;;;5051035;28;20041;-74
2022/04/05 02:54:34;;;;;;;1.60;0.70;;;10.40;79.70;;;;;;5055523;28;20051;-75
2022/04/05 02:57:00;;;;;;;0.90;0.60;;;10.40;80.40;;;;;;5052776;28;20225;-74
2022/04/05 02:59:27;;;;;;;1.17;0.70;;;10.40;79.90;;;;;;5049964;28;20044;-73
2022/04/05 03:01:54;;;;;;;0.80;0.60;;;10.40;81.20;;;;;;5043532;28;20041;-73
2022/04/05 03:04:21;;;;;;;0.80;0.60;;;10.40;80.60;;;;;;5053943;28;20045;-73
2022/04/05 03:06:47;;;;;;;1.20;0.65;;;10.50;80.30;;;;;;5051021;28;20050;-75
2022/04/05 03:09:16;;;;;;;1.15;0.80;;;10.40;80.10;;;;;;5047558;28;20056;-74
2022/04/05 03:11:43;;;;;;;1.10;0.80;;;10.40;81.30;;;;;;5054476;28;20036;-75
2022/04/05 03:14:11;;;;;;;0.90;0.63;;;10.40;80.80;;;;;;5049964;28;20048;-73
2022/04/05 03:16:39;;;;;;;1.23;0.80;;;10.40;80.60;;;;;;5049231;28;20036;-74
2022/04/05 03:19:07;;;;;;;1.42;0.70;;;10.40;81.00;;;;;;5048727;28;20119;-73
2022/04/05 03:21:34;;;;;;;1.30;0.73;;;10.50;80.20;;;;;;5039311;28;20036;-73
2022/04/05 03:24:01;;;;;;;0.90;0.70;;;10.40;80.50;;;;;;5053419;28;20093;-73
2022/04/05 03:26:29;;;;;;;1.00;0.60;;;10.40;81.60;;;;;;5052995;28;20051;-74
2022/04/05 03:28:58;;;;;;;1.00;0.60;;;10.50;80.80;;;;;;5030900;28;20045;-73
2022/04/05 03:31:24;;;;;;;1.70;0.73;;;10.50;81.30;;;;;;5046623;28;20327;-74
2022/04/05 03:33:51;;;;;;;1.60;0.80;;;10.50;81.00;;;;;;5039284;28;20048;-73
2022/04/05 03:36:18;;;;;;;1.10;0.70;;;10.50;81.30;;;;;;5052606;28;20045;-73
2022/04/05 03:38:45;;;;;;;1.63;0.80;;;10.50;81.00;;;;;;5035210;28;20040;-74
2022/04/05 03:41:12;;;;;;;1.10;0.70;;;10.50;81.70;;;;;;5055434;28;20542;-74
2022/04/05 03:43:40;;;;;;;1.08;0.70;;;10.40;80.60;;;;;;5054977;28;20755;-74
2022/04/05 03:46:07;;;;;;;1.00;0.70;;;10.40;81.10;;;;;;5053326;28;20040;-73
2022/04/05 03:48:33;;;;;;;1.08;0.70;;;10.50;81.40;;;;;;5049506;28;20143;-73
2022/04/05 03:51:01;;;;;;;1.30;0.73;;;10.40;81.20;;;;;;5048754;28;20090;-76
2022/04/05 03:53:28;;;;;;;0.75;0.60;;;10.50;81.60;;;;;;5046265;28;20068;-74
2022/04/05 03:55:55;;;;;;;1.15;0.70;;;10.50;81.60;;;;;;5050662;28;20051;-73
2022/04/05 03:58:22;;;;;;;1.08;0.70;;;10.50;82.00;;;;;;5035505;28;20070;-76
2022/04/05 04:00:51;;;;;;;1.25;0.70;;;10.40;81.50;;;;;;5052129;28;20457;-74
2022/04/05 04:03:18;;;;;;;1.10;0.60;;;10.50;81.50;;;;;;5034453;28;20048;-74
2022/04/05 04:05:45;;;;;;;1.23;0.60;;;10.50;81.90;;;;;;5050779;28;20041;-74
2022/04/05 04:08:12;;;;;;;1.20;0.75;;;10.50;81.70;;;;;;5049092;28;20045;-73
2022/04/05 04:10:38;;;;;;;1.70;0.80;;;10.50;82.10;;;;;;5059238;28;20100;-73
2022/04/05 04:13:07;;;;;;;1.17;0.75;;;10.50;82.20;;;;;;5051821;28;20045;-74
2022/04/05 04:15:34;;;;;;;0.90;0.60;;;10.50;82.60;;;;;;5058852;28;20044;-73
2022/04/05 04:18:02;;;;;;;1.27;0.68;;;10.50;82.20;;;;;;5053114;28;20032;-74
2022/04/05 04:20:29;;;;;;;1.35;0.70;;;10.50;82.00;;;;;;5055771;28;20055;-75
2022/04/05 04:22:56;;;;;;;1.60;0.70;;;10.50;82.20;;;;;;5066116;28;20036;-74
2022/04/05 04:25:23;;;;;;;1.23;0.80;;;10.50;82.30;;;;;;5042074;28;20044;-74
2022/04/05 04:27:50;;;;;;;1.13;0.63;;;10.50;82.40;;;;;;5057073;28;20062;-74
2022/04/05 04:30:17;;;;;;;1.67;0.80;;;10.50;82.10;;;;;;5048605;28;20041;-72
2022/04/05 04:32:43;;;;;;;1.05;0.70;;;10.50;81.80;;;;;;5044909;28;20047;-74
2022/04/05 04:35:12;;;;;;;0.95;0.60;;;10.50;82.00;;;;;;5050682;28;20044;-75
2022/04/05 04:37:39;;;;;;;1.90;0.80;;;10.50;81.70;;;;;;5056358;28;20033;-75
2022/04/05 04:40:07;;;;;;;2.20;0.60;;;10.50;81.30;;;;;;5032706;28;20648;-73
2022/04/05 04:42:34;;;;;;;0.90;0.63;;;10.50;81.40;;;;;;5048085;28;20045;-75
2022/04/05 04:45:01;;;;;;;1.38;0.63;;;10.50;81.40;;;;;;5045992;28;20511;-74
2022/04/05 04:47:28;;;;;;;1.17;0.60;;;10.50;81.60;;;;;;5051543;28;20060;-73
2022/04/05 04:49:55;;;;;;;1.30;0.70;;;10.50;81.10;;;;;;5050157;28;20048;-72
2022/04/05 04:52:24;;;;;;;3.00;0.70;;;10.50;82.20;;;;;;5050481;28;20048;-76
2022/04/05 04:54:52;;;;;;;1.13;0.63;;;10.50;81.40;;;;;;5054727;28;20032;-73
2022/04/05 04:57:19;;;;;;;1.35;0.70;;;10.50;81.70;;;;;;5047870;28;20040;-75
2022/04/05 04:59:45;;;;;;;0.90;0.60;;;10.50;81.60;;;;;;5052142;28;20104;-74
2022/04/05 05:02:13;;;;;;;2.45;0.80;;;10.50;81.90;;;;;;5054107;28;20055;-74
2022/04/05 05:04:40;;;;;;;0.85;0.50;;;10.50;82.70;;;;;;5020881;28;20049;-73
2022/04/05 05:07:07;;;;;;;1.55;0.70;;;10.50;82.00;;;;;;5045279;28;20040;-72
2022/04/05 05:09:36;;;;;;;1.15;0.60;;;10.50;81.80;;;;;;5046972;28;20064;-75
2022/04/05 05:12:05;;;;;;;1.65;0.70;;;10.50;82.40;;;;;;5043206;28;20045;-75
2022/04/05 05:14:32;;;;;;;1.20;0.70;;;10.50;82.20;;;;;;5045904;28;20048;-72
2022/04/05 05:16:59;;;;;;;1.80;0.60;;;10.50;81.70;;;;;;5044763;28;20108;-73
2022/04/05 05:19:26;;;;;;;1.00;0.60;;;10.50;82.90;;;;;;5047365;28;20037;-75
2022/04/05 05:21:53;;;;;;;1.52;0.65;;;10.50;82.40;;;;;;5057250;28;20037;-74
2022/04/05 05:24:19;;;;;;;1.38;0.60;;;10.50;82.80;;;;;;5052114;28;20044;-73
2022/04/05 05:26:49;;;;;;;1.10;0.60;;;10.50;82.70;;;;;;5047413;28;20106;-73
2022/04/05 05:29:16;;;;;;;1.65;0.85;;;10.50;81.60;;;;;;5051181;28;20131;-74
2022/04/05 05:31:43;;;;;;;1.10;0.60;;;10.50;81.90;;;;;;5050257;28;20047;-74
2022/04/05 05:34:10;;;;;;;11.20;1.00;;;10.50;82.50;;;;;;5053464;28;20411;-74
2022/04/05 05:36:38;;;;;;;6.13;2.05;;;10.50;83.30;;;;;;5051075;28;20044;-73
2022/04/05 05:39:05;;;;;;;4.97;3.08;;;10.60;93.10;;;;;;5054548;28;20049;-75
2022/04/05 05:41:32;;;;;;;4.22;2.30;;;10.50;99.90;;;;;;5048576;28;20124;-74
2022/04/05 05:44:00;;;;;;;3.95;2.25;;;10.60;98.80;;;;;;5048287;28;20037;-75
2022/04/05 05:46:27;;;;;;;11.85;2.40;;;10.60;96.60;;;;;;5052265;28;20147;-75
2022/04/05 05:48:54;;;;;;;7.22;2.00;;;10.60;97.10;;;;;;5060855;28;20048;-75
2022/04/05 05:51:21;;;;;;;6.35;2.50;;;10.60;96.30;;;;;;5058649;28;20045;-76
2022/04/05 05:53:48;;;;;;;6.25;2.60;;;10.60;97.70;;;;;;5052721;28;20403;-75
2022/04/05 05:56:15;;;;;;;5.50;2.45;;;10.60;98.70;;;;;;5055550;28;20052;-73
2022/04/05 05:58:42;;;;;;;4.18;2.10;;;10.60;97.60;;;;;;5052745;28;20040;-77
2022/04/05 06:01:10;;;;;;;5.05;2.45;;;10.60;97.80;;;;;;5052335;28;20072;-76
2022/04/05 06:03:39;;;;;;;3.95;2.47;;;10.60;99.00;;;;;;5058545;28;20044;-73
2022/04/05 06:06:07;;;;;;;5.32;2.45;;;10.60;98.80;;;;;;5038369;28;20652;-73
2022/04/05 06:08:34;;;;;;;5.95;2.50;;;10.60;97.40;;;;;;5055203;28;20043;-73
2022/04/05 06:11:01;;;;;;;5.88;2.13;;;10.60;97.80;;;;;;5059573;28;20037;-74
2022/04/05 06:13:28;;;;;;;4.05;2.00;;;10.60;96.00;;;;;;5059232;28;20055;-75
2022/04/05 06:15:55;;;;;;;4.20;2.17;;;10.60;96.10;;;;;;5055650;28;20132;-74
2022/04/05 06:18:23;;;;;;;3.80;2.03;;;10.60;95.70;;;;;;5061774;28;20143;-76
2022/04/05 06:20:50;;;;;;;3.95;1.80;;;10.60;96.50;;;;;;5055986;28;20045;-75
2022/04/05 06:23:17;;;;;;;3.45;1.65;;;10.60;94.80;;;;;;5061064;28;20040;-75
2022/04/05 06:25:44;;;;;;;3.53;1.80;;;10.60;94.50;;;;;;5040676;28;20063;-73
2022/04/05 06:28:15;;;;;;;4.45;1.92;;;10.60;95.60;;;;;;5057362;28;20080;-74
2022/04/05 06:30:42;;;;;;;4.07;1.55;;;10.60;95.30;;;;;;5060355;28;20102;-74
2022/04/05 06:33:11;;;;;;;2.45;1.60;;;10.60;95.10;;;;;;5057859;28;20064;-74
2022/04/05 06:35:41;;;;;;;2.40;1.70;;;10.60;94.60;;;;;;5055231;28;20063;-73
2022/04/05 06:38:09;;;;;;;3.63;1.67;;;10.60;94.40;;;;;;5054159;28;20072;-74
2022/04/05 06:40:36;;;;;;;2.38;1.65;;;10.60;94.10;;;;;;5053801;28;20056;-74
2022/04/05 06:43:03;;;;;;;3.45;1.45;;;10.60;94.60;;;;;;5039472;28;20110;-74
2022/04/05 06:45:31;;;;;;;2.55;1.42;;;10.60;94.40;;;;;;5035073;28;20098;-74
2022/04/05 06:47:58;;;;;;;4.25;1.50;;;10.60;93.90;;;;;;5051236;28;20075;-74
2022/04/05 06:50:25;;;;;;;3.88;1.55;;;10.70;94.20;;;;;;5052850;28;20083;-75
2022/04/05 06:52:54;;;;;;;3.22;1.30;;;10.70;94.30;;;;;;5053527;28;20055;-74
2022/04/05 06:55:21;;;;;;;5.03;1.45;;;10.60;93.30;;;;;;5054688;28;20049;-74
2022/04/05 06:57:50;;;;;;;2.33;1.20;;;10.60;94.20;;;;;;5056638;28;20048;-73
2022/04/05 07:00:18;;;;;;;2.17;1.30;;;10.60;93.70;;;;;;5060928;28;20042;-75
2022/04/05 07:02:45;;;;;;;2.95;1.30;;;10.70;93.70;;;;;;5034897;28;20044;-72
2022/04/05 07:05:13;;;;;;;1.70;1.02;;;10.70;92.90;;;;;;5053154;28;20048;-74
2022/04/05 07:07:40;;;;;;;3.78;1.10;;;10.70;93.70;;;;;;5057495;28;20133;-74
2022/04/05 07:10:11;;;;;;;1.88;1.20;;;10.70;92.60;;;;;;5038242;28;20083;-76
2022/04/05 07:12:39;;;;;;;2.90;1.10;;;10.70;93.20;;;;;;5053777;28;20041;-75
2022/04/05 07:15:07;;;;;;;2.05;0.90;;;10.70;92.60;;;;;;5029839;28;20045;-74
2022/04/05 07:17:34;;;;;;;2.83;1.02;;;10.70;92.50;;;;;;5057733;28;20055;-74
2022/04/05 07:20:01;;;;;;;2.10;1.00;;;10.60;93.00;;;;;;5036247;28;20102;-74
2022/04/05 07:22:28;;;;;;;2.80;1.00;;;10.70;92.60;;;;;;5058805;28;20445;-75
2022/04/05 07:24:55;;;;;;;1.73;1.00;;;10.70;92.80;;;;;;5054472;28;20037;-74
2022/04/05 07:27:23;;;;;;;2.10;1.15;;;10.70;92.50;;;;;;5049989;28;20141;-74
2022/04/05 07:29:50;;;;;;;5.20;1.23;;;10.70;93.00;;;;;;5054018;28;20071;-73
2022/04/05 07:32:17;;;;;;;2.00;0.82;;;10.70;93.10;;;;;;5031081;28;20040;-74
2022/04/05 07:34:44;;;;;;;5.97;1.40;;;10.70;92.70;;;;;;5052989;28;20124;-76
2022/04/05 07:37:11;;;;;;;8.13;2.30;;;10.70;93.90;;;;;;5044940;28;20041;-76
2022/04/05 07:39:40;;;;;;;4.95;3.17;;;10.70;98.50;;;;;;5055931;28;20115;-75
2022/04/05 07:42:08;;;;;;;4.88;3.35;;;10.70;99.90;;;;;;5041250;28;20040;-74
2022/04/05 07:44:37;;;;;;;4.85;3.55;;;10.70;99.90;;;;;;5054654;28;20040;-73
2022/04/05 07:47:05;;;;;;;3.90;2.30;;;10.70;99.90;;;;;;5030088;28;20068;-75
2022/04/05 07:49:32;;;;;;;5.32;2.25;;;10.80;99.90;;;;;;5054139;28;20036;-75
2022/04/05 07:51:59;;;;;;;5.50;1.98;;;10.80;99.20;;;;;;5045973;28;20044;-75
2022/04/05 07:54:26;;;;;;;5.93;2.25;;;10.80;98.40;;;;;;5056509;28;20045;-73
2022/04/05 07:56:52;;;;;;;4.88;2.20;;;10.80;97.60;;;;;;5046848;28;20382;-74
2022/04/05 07:59:19;;;;;;;5.20;2.00;;;10.90;97.80;;;;;;5050434;28;20731;-74
2022/04/05 08:01:49;;;;;;;5.03;2.40;;;10.90;97.20;;;;;;5052748;28;20040;-75
2022/04/05 08:04:16;;;;;;;3.45;1.70;;;10.90;98.60;;;;;;5035397;28;20060;-77
2022/04/05 08:06:42;;;;;;;6.40;2.67;;;10.90;97.40;;;;;;5053110;28;20120;-75
2022/04/05 08:09:09;;;;;;;5.07;2.22;;;10.90;99.90;;;;;;5053246;28;20384;-75
2022/04/05 08:11:36;;;;;;;5.05;1.90;;;10.90;98.90;;;;;;5057188;28;20055;-74
2022/04/05 08:14:03;;;;;;;5.95;2.05;;;10.90;97.40;;;;;;5050898;28;20067;-76
2022/04/05 08:16:30;;;;;;;2.78;1.58;;;10.90;98.20;;;;;;5062491;28;20090;-74
2022/04/05 08:18:58;;;;;;;3.95;1.70;;;10.90;97.60;;;;;;5056186;28;20558;-75
2022/04/05 08:21:26;;;;;;;4.75;1.63;;;10.90;97.30;;;;;;5058044;28;20044;-73
2022/04/05 08:23:53;;;;;;;5.45;1.70;;;10.90;97.20;;;;;;5051813;28;20068;-74
2022/04/05 08:26:19;;;;;;;4.18;2.40;;;11.00;97.30;;;;;;5052109;28;20044;-75
2022/04/05 08:28:50;;;;;;;7.25;2.60;;;11.00;99.90;;;;;;5037436;28;20047;-73
2022/04/05 08:31:17;;;;;;;36.30;3.17;;;11.00;99.90;;;;;;5039080;28;20095;-76
2022/04/05 08:33:50;;;;;;;10.85;2.65;;;11.00;99.90;;;;;;5038106;28;20102;-75
2022/04/05 08:36:19;;;;;;;9.63;2.92;;;11.00;99.90;;;;;;5061694;28;20048;-74
2022/04/05 08:38:46;;;;;;;9.73;2.70;;;11.00;99.90;;;;;;5045327;28;20488;-75
2022/04/05 08:41:13;;;;;;;7.28;3.10;;;11.10;99.90;;;;;;5049896;28;20033;-75
2022/04/05 08:43:44;;;;;;;7.97;3.05;;;11.00;99.90;;;;;;5026145;28;20041;-74
2022/04/05 08:46:11;;;;;;;8.50;2.25;;;11.10;99.90;;;;;;5052388;28;20120;-72
2022/04/05 08:48:39;;;;;;;7.43;1.95;;;11.10;99.90;;;;;;5050465;28;20590;-75
2022/04/05 08:51:06;;;;;;;5.78;1.77;;;11.10;99.90;;;;;;5053486;28;20406;-76
2022/04/05 08:53:35;;;;;;;12.00;2.35;;;11.10;99.90;;;;;;5049140;28;20139;-74
2022/04/05 08:56:02;;;;;;;5.95;1.50;;;11.20;99.90;;;;;;5047542;28;20098;-75
2022/04/05 08:58:29;;;;;;;6.43;1.63;;;11.20;99.90;;;;;;5038361;28;20065;-74
2022/04/05 09:00:56;;;;;;;8.73;1.55;;;11.20;99.90;;;;;;5051378;28;20051;-76
2022/04/05 09:03:23;;;;;;;6.05;1.20;;;11.20;99.90;;;;;;5029894;28;20040;-73
2022/04/05 09:05:50;;;;;;;3.47;1.10;;;11.20;99.90;;;;;;5050641;28;20124;-73
2022/04/05 09:08:19;;;;;;;3.55;1.10;;;11.20;99.90;;;;;;5053468;28;20072;-76
2022/04/05 09:10:50;;;;;;;3.70;1.25;;;11.20;99.90;;;;;;5046021;28;20056;-74
2022/04/05 09:13:22;;;;;;;4.15;1.08;;;11.20;99.90;;;;;;5047862;28;20049;-74
2022/04/05 09:15:51;;;;;;;;;;;11.20;99.70;;;;;;5053676;28;20045;-76
2022/04/05 09:18:32;;;;;;;3.40;0.90;;;11.20;99.90;;;;;;5053602;28;19927;-76
2022/04/05 09:20:58;;;;;;;4.50;1.00;;;11.20;99.90;;;;;;5055586;28;20063;-74
2022/04/05 09:23:38;;;;;;;3.97;0.90;;;11.20;99.60;;;;;;5051952;28;20102;-74
2022/04/05 09:26:09;;;;;;;1.70;0.80;;;11.30;99.90;;;;;;5033394;28;20487;-76
2022/04/05 09:28:37;;;;;;;2.33;0.80;;;11.30;99.90;;;;;;5052941;28;20610;-77
2022/04/05 09:31:06;;;;;;;5.50;1.00;;;11.30;99.40;;;;;;5036846;28;20052;-75
2022/04/05 09:33:35;;;;;;;1.65;0.70;;;11.30;98.20;;;;;;5036546;28;20040;-74
2022/04/05 09:36:13;;;;;;;3.58;0.90;;;11.30;98.10;;;;;;5056804;28;20067;-75
2022/04/05 09:38:42;;;;;;;2.30;0.80;;;11.30;98.60;;;;;;5034228;28;20055;-74
2022/04/05 09:41:21;;;;;;;2.60;0.80;;;11.30;98.50;;;;;;5058777;28;20048;-74
2022/04/05 09:43:57;;;;;;;3.10;0.80;;;11.30;97.70;;;;;;5054172;28;20068;-76
2022/04/05 09:46:25;;;;;;;1.50;0.73;;;11.40;98.20;;;;;;5058220;28;20033;-75
2022/04/05 09:49:04;;;;;;;2.50;0.88;;;11.30;98.90;;;;;;5060122;28;20037;-75
2022/04/05 09:51:36;;;;;;;2.05;0.80;;;11.40;98.10;;;;;;5052281;28;20123;-73
2022/04/05 09:54:03;;;;;;;2.72;0.70;;;11.40;98.30;;;;;;5050534;28;20116;-77
2022/04/05 09:56:34;;;;;;;3.28;0.70;;;11.40;97.50;;;;;;5057079;28;20399;-76
2022/04/05 09:59:04;;;;;;;1.27;0.60;;;11.40;97.70;;;;;;5054533;28;20717;-76
2022/04/05 10:01:33;;;;;;;1.98;0.70;;;11.40;98.00;;;;;;5052284;28;20044;-75
2022/04/05 10:04:01;;;;;;;3.20;0.70;;;11.40;97.70;;;;;;5054266;28;20072;-74
2022/04/05 10:06:30;;;;;;;2.47;0.80;;;11.40;97.40;;;;;;5058771;28;20055;-73
2022/04/05 10:08:57;;;;;;;2.00;0.60;;;11.50;97.50;;;;;;5055289;28;20064;-73
2022/04/05 10:11:26;;;;;;;2.28;0.80;;;11.40;97.20;;;;;;5039468;28;20104;-74
2022/04/05 10:13:55;;;;;;;1.85;0.70;;;11.40;97.10;;;;;;5065942;28;20040;-74
2022/04/05 10:16:42;;;;;;;1.95;0.70;;;11.40;97.80;;;;;;5050034;28;20052;-75
2022/04/05 10:19:11;;;;;;;2.25;0.77;;;11.50;98.00;;;;;;5069993;28;20051;-75
2022/04/05 10:21:41;;;;;;;3.28;0.52;;;11.50;97.80;;;;;;5064129;28;22209;-74
2022/04/05 10:24:09;;;;;;;1.60;0.52;;;11.50;97.60;;;;;;5060897;28;20075;-75
2022/04/05 10:26:38;;;;;;;2.03;0.70;;;11.50;97.00;;;;;;5056439;28;20043;-76
2022/04/05 10:29:08;;;;;;;1.58;0.52;;;11.50;97.10;;;;;;5048027;28;20041;-74
2022/04/05 10:31:55;;;;;;;1.17;0.60;;;11.50;96.60;;;;;;5061050;28;20036;-74
2022/04/05 10:34:30;;;;;;;2.08;0.60;;;11.50;96.60;;;;;;5038402;28;20066;-75
2022/04/05 10:37:07;;;;;;;1.30;0.60;;;11.50;96.70;;;;;;5054939;28;20129;-74
2022/04/05 10:39:35;;;;;;;1.10;0.60;;;11.50;96.60;;;;;;5056618;28;20064;-73
2022/04/05 10:42:36;;;;;;;1.67;0.60;;;11.50;97.00;;;;;;5058820;28;20051;-74
2022/04/05 10:45:16;;;;;;;1.83;0.77;;;11.50;96.70;;;;;;5045273;28;20440;-74
2022/04/05 10:48:10;;;;;;;1.33;0.50;;;11.60;96.70;;;;;;5060697;28;20469;-76
2022/04/05 10:50:39;;;;;;;4.38;0.50;;;11.50;96.60;;;;;;5040866;28;20410;-73
2022/04/05 10:53:29;;;;;;;1.42;0.68;;;11.60;96.40;;;;;;5056169;28;20032;-73
2022/04/05 10:56:21;;;;;;;1.85;0.70;;;11.60;96.80;;;;;;5037597;28;20036;-75
2022/04/05 10:59:16;;;;;;;0.85;0.50;;;11.60;96.90;;;;;;5042673;28;20804;-75
2022/04/05 11:01:45;;;;;;;2.15;0.82;;;11.60;96.70;;;;;;5057712;28;20075;-74
2022/04/05 11:04:31;;;;;;;1.65;0.63;;;11.60;96.80;;;;;;5052800;28;20083;-74
2022/04/05 11:07:12;;;;;;;3.15;0.70;;;11.60;96.30;;;;;;5045464;28;20450;-74
2022/04/05 11:09:49;;;;;;;4.50;0.68;;;11.60;96.80;;;;;;5053602;28;20068;-74
2022/04/05 11:12:20;;;;;;;3.40;0.82;;;11.60;96.90;;;;;;5033491;28;20045;-78
2022/04/05 11:14:50;;;;;;;6.75;0.93;;;11.70;97.20;;;;;;5051577;28;20051;-76
2022/04/05 11:17:21;;;;;;;3.00;0.80;;;11.70;96.90;;;;;;5055077;28;20055;-75
2022/04/05 11:19:51;;;;;;;4.35;0.70;;;11.70;96.40;;;;;;5054996;28;20048;-74
2022/04/05 11:22:37;;;;;;;3.75;0.80;;;11.70;96.50;;;;;;5052262;28;20052;-75
2022/04/05 11:25:09;;;;;;;2.20;0.70;;;11.70;96.30;;;;;;5049819;28;20064;-75
2022/04/05 11:27:42;;;;;;;4.72;0.70;;;11.70;96.30;;;;;;5040192;28;20089;-76
2022/04/05 11:30:40;;;;;;;1.38;0.60;;;11.70;96.30;;;;;;5033621;28;20040;-75
2022/04/05 11:33:41;;;;;;;2.90;0.73;;;11.70;96.60;;;;;;5013925;28;20059;-77
2022/04/05 11:36:25;;;;;;;1.95;0.88;;;11.70;96.40;;;;;;5005249;28;20046;-76
2022/04/05 11:38:56;;;;;;;1.30;0.60;;;11.70;96.30;;;;;;5029078;28;20047;-75
2022/04/05 11:41:25;;;;;;;2.72;0.68;;;11.70;96.30;;;;;;5027717;28;20049;-75
2022/04/05 11:43:53;;;;;;;3.05;0.80;;;11.70;96.20;;;;;;5025667;28;20044;-75
2022/04/05 11:46:22;;;;;;;1.85;0.70;;;11.80;97.10;;;;;;5037788;28;20072;-73
2022/04/05 11:48:52;;;;;;;2.78;0.85;;;11.80;96.90;;;;;;5009570;28;20056;-74
2022/04/05 11:51:21;;;;;;;2.15;0.73;;;11.80;96.70;;;;;;5039842;28;20662;-74
2022/04/05 11:53:48;;;;;;;5.03;0.95;;;11.80;96.60;;;;;;5027697;28;20033;-74
2022/04/05 11:56:21;;;;;;;4.22;0.60;;;11.80;96.60;;;;;;5035794;28;20072;-74
2022/04/05 11:58:50;;;;;;;2.47;0.80;;;11.80;96.80;;;;;;5032957;28;20041;-74
2022/04/05 12:01:22;;;;;;;2.72;0.65;;;11.80;96.70;;;;;;5029776;28;20159;-75
2022/04/05 12:03:54;;;;;;;1.98;0.70;;;11.80;97.00;;;;;;5030658;28;20396;-74
2022/04/05 12:06:22;;;;;;;2.33;0.80;;;11.80;97.10;;;;;;5035944;28;20435;-75
2022/04/05 12:08:50;;;;;;;2.70;0.63;;;11.80;97.30;;;;;;5031546;28;20072;-75
2022/04/05 12:11:20;;;;;;;2.10;0.70;;;11.80;97.10;;;;;;5037160;28;20045;-74
2022/04/05 12:13:58;;;;;;;2.88;0.80;;;11.80;97.00;;;;;;5019157;28;20494;-74
2022/04/05 12:16:46;;;;;;;2.47;0.77;;;11.80;97.00;;;;;;5048574;28;20069;-74
2022/04/05 12:19:18;;;;;;;2.13;0.77;;;11.80;97.10;;;;;;5040017;28;20041;-74
2022/04/05 12:21:44;;;;;;;2.28;0.70;;;11.90;97.30;;;;;;5039695;28;20041;-74
2022/04/05 12:24:12;;;;;;;2.50;0.70;;;11.90;97.30;;;;;;5035036;28;20072;-73
2022/04/05 12:26:38;;;;;;;6.28;1.00;;;11.90;97.10;;;;;;5021783;28;20658;-71
2022/04/05 12:29:05;;;;;;;3.53;0.70;;;11.90;97.30;;;;;;5054747;28;20041;-72
2022/04/05 12:31:32;;;;;;;5.43;0.95;;;11.90;97.80;;;;;;5050669;28;20098;-72
2022/04/05 12:34:01;;;;;;;4.10;0.90;;;11.90;97.90;;;;;;5048321;28;20133;-74
2022/04/05 12:36:35;;;;;;;5.80;1.17;;;11.90;98.00;;;;;;5055130;28;20590;-71
2022/04/05 12:39:04;;;;;;;11.32;1.30;;;11.90;98.70;;;;;;5049205;28;20072;-72
2022/04/05 12:41:38;;;;;;;15.05;1.65;;;11.90;99.90;;;;;;5031198;28;20052;-73
2022/04/05 12:44:08;;;;;;;14.10;1.25;;;12.00;99.90;;;;;;5053754;28;20045;-72
2022/04/05 12:46:41;;;;;;;9.15;1.45;;;12.00;99.90;;;;;;5047113;28;20041;-72
2022/04/05 12:49:22;;;;;;;12.85;1.10;;;12.00;99.90;;;;;;5052469;28;20044;-73
2022/04/05 12:51:52;;;;;;;10.70;1.33;;;12.00;99.80;;;;;;5049002;28;20123;-72
2022/04/05 12:54:31;;;;;;;3.78;1.00;;;12.00;99.90;;;;;;5049989;28;20048;-74
2022/04/05 12:57:19;;;;;;;5.88;1.27;;;12.00;99.90;;;;;;5061663;28;20041;-73
2022/04/05 12:59:48;;;;;;;6.80;1.00;;;12.00;99.60;;;;;;5061260;28;20132;-73